createdAt,value
2023-02-16T00:00:33.891Z,8.39
2023-02-16T00:03:01.637Z,8.19
2023-02-16T00:08:10.832Z,7.32
2023-02-16T00:10:37.508Z,7.17
2023-02-16T00:13:11.121Z,7.10
2023-02-16T00:15:37.558Z,6.65
2023-02-16T00:18:04.023Z,6.28
2023-02-16T00:20:30.424Z,7.44
2023-02-16T00:22:57.019Z,8.95
2023-02-16T00:25:23.575Z,7.89
2023-02-16T00:27:49.953Z,7.60
2023-02-16T00:30:17.349Z,8.12
2023-02-16T00:32:44.056Z,8.72
2023-02-16T00:35:10.404Z,8.48
2023-02-16T00:37:37.147Z,9.11
2023-02-16T00:40:03.500Z,8.86
2023-02-16T00:42:30.212Z,8.13
2023-02-16T00:44:56.699Z,8.10
2023-02-16T00:47:23.086Z,8.91
2023-02-16T00:49:49.448Z,8.67
2023-02-16T00:52:15.835Z,8.30
2023-02-16T00:54:42.238Z,9.03
2023-02-16T00:57:08.581Z,8.63
2023-02-16T00:59:35.123Z,8.27
2023-02-16T01:02:01.496Z,8.49
2023-02-16T01:04:31.171Z,8.46
2023-02-16T01:06:57.736Z,7.81
2023-02-16T01:09:24.126Z,7.93
2023-02-16T01:11:50.622Z,8.15
2023-02-16T01:14:16.963Z,7.42
2023-02-16T01:16:43.322Z,7.13
2023-02-16T01:19:09.993Z,6.26
2023-02-16T01:21:36.560Z,6.06
2023-02-16T01:24:02.973Z,6.31
2023-02-16T01:26:29.311Z,6.40
2023-02-16T01:28:55.642Z,7.75
2023-02-16T01:31:22.360Z,7.29
2023-02-16T01:33:48.795Z,7.46
2023-02-16T01:36:15.554Z,7.21
2023-02-16T01:38:41.918Z,7.60
2023-02-16T01:41:08.296Z,9.11
2023-02-16T01:43:34.738Z,9.87
2023-02-16T01:46:01.094Z,9.35
2023-02-16T01:48:28.951Z,8.21
2023-02-16T01:50:55.297Z,7.54
2023-02-16T01:53:22.621Z,8.85
2023-02-16T01:55:49.250Z,9.41
2023-02-16T01:58:15.653Z,10.16
2023-02-16T02:00:42.113Z,8.86
2023-02-16T02:03:08.838Z,7.74
2023-02-16T02:05:35.373Z,8.04
2023-02-16T02:08:02.100Z,7.91
2023-02-16T02:10:29.035Z,7.31
2023-02-16T02:12:55.490Z,6.52
2023-02-16T02:15:21.928Z,6.03
2023-02-16T02:17:50.645Z,5.98
2023-02-16T02:20:16.995Z,6.06
2023-02-16T02:22:43.643Z,5.96
2023-02-16T02:25:11.116Z,5.55
2023-02-16T02:27:37.491Z,7.22
2023-02-16T02:30:03.888Z,7.56
2023-02-16T02:32:31.370Z,7.17
2023-02-16T02:34:59.211Z,7.21
2023-02-16T02:37:26.778Z,6.79
2023-02-16T02:39:55.419Z,6.77
2023-02-16T02:42:21.760Z,5.43
2023-02-16T02:44:48.103Z,5.10
2023-02-16T02:47:15.506Z,4.91
2023-02-16T02:49:43.753Z,5.92
2023-02-16T02:52:12.131Z,7.44
2023-02-16T02:54:38.484Z,7.05
2023-02-16T02:57:04.868Z,7.11
2023-02-16T02:59:32.771Z,6.56
2023-02-16T03:01:59.188Z,6.34
2023-02-16T03:04:25.534Z,6.24
2023-02-16T03:06:51.904Z,6.43
2023-02-16T03:09:22.692Z,6.14
2023-02-16T03:11:49.048Z,6.93
2023-02-16T03:14:15.804Z,7.70
2023-02-16T03:16:42.272Z,6.44
2023-02-16T03:19:09.569Z,6.34
2023-02-16T03:21:36.124Z,6.69
2023-02-16T03:24:02.506Z,6.42
2023-02-16T03:26:28.909Z,6.47
2023-02-16T03:28:55.701Z,6.06
2023-02-16T03:31:22.186Z,5.42
2023-02-16T03:33:48.793Z,4.45
2023-02-16T03:36:16.432Z,4.35
2023-02-16T03:38:42.798Z,5.92
2023-02-16T03:41:09.456Z,5.69
2023-02-16T03:43:35.820Z,5.35
2023-02-16T03:46:03.395Z,5.30
2023-02-16T03:48:32.590Z,5.80
2023-02-16T03:50:58.994Z,5.78
2023-02-16T03:53:25.565Z,5.66
2023-02-16T03:55:54.894Z,5.47
2023-02-16T03:58:21.593Z,5.29
2023-02-16T04:00:48.219Z,6.14
2023-02-16T04:03:16.872Z,6.13
2023-02-16T04:05:43.471Z,6.89
2023-02-16T04:08:09.817Z,7.66
2023-02-16T04:10:38.700Z,7.33
2023-02-16T04:13:05.312Z,6.48
2023-02-16T04:15:31.790Z,5.80
2023-02-16T04:18:00.481Z,5.50
2023-02-16T04:20:28.893Z,4.83
2023-02-16T04:22:55.745Z,4.67
2023-02-16T04:25:22.167Z,4.57
2023-02-16T04:27:49.804Z,4.45
2023-02-16T04:30:16.353Z,4.95
2023-02-16T04:32:43.018Z,4.58
2023-02-16T04:35:13.741Z,5.85
2023-02-16T04:37:40.959Z,5.78
2023-02-16T04:40:07.350Z,5.83
2023-02-16T04:42:35.719Z,6.03
2023-02-16T04:45:03.714Z,7.15
2023-02-16T04:47:30.207Z,6.95
2023-02-16T04:49:56.582Z,6.17
2023-02-16T04:52:22.971Z,5.79
2023-02-16T04:54:49.386Z,5.69
2023-02-16T04:57:18.142Z,5.67
2023-02-16T04:59:44.645Z,5.51
2023-02-16T05:02:11.032Z,5.55
2023-02-16T05:04:37.525Z,5.79
2023-02-16T05:07:04.414Z,5.90
2023-02-16T05:09:32.824Z,6.15
2023-02-16T05:11:59.520Z,6.01
2023-02-16T05:14:25.888Z,6.17
2023-02-16T05:16:52.323Z,5.94
2023-02-16T05:19:19.266Z,6.32
2023-02-16T05:21:45.859Z,6.67
2023-02-16T05:24:13.398Z,7.15
2023-02-16T05:26:41.006Z,7.40
2023-02-16T05:29:09.658Z,7.74
2023-02-16T05:31:36.881Z,7.29
2023-02-16T05:34:03.296Z,7.06
2023-02-16T05:36:29.827Z,7.25
2023-02-16T05:38:56.626Z,7.36
2023-02-16T05:41:25.017Z,7.16
2023-02-16T05:43:51.361Z,7.23
2023-02-16T05:46:19.142Z,6.76
2023-02-16T05:48:52.935Z,6.56
2023-02-16T05:51:19.337Z,6.90
2023-02-16T05:53:48.054Z,7.02
2023-02-16T05:56:17.000Z,6.93
2023-02-16T05:58:45.774Z,6.99
2023-02-16T06:01:12.402Z,6.69
2023-02-16T06:03:39.913Z,6.82
2023-02-16T06:06:06.413Z,6.72
2023-02-16T06:08:32.836Z,6.77
2023-02-16T06:11:00.219Z,6.87
2023-02-16T06:13:33.838Z,6.74
2023-02-16T06:16:00.267Z,6.46
2023-02-16T06:18:27.082Z,6.44
2023-02-16T06:20:54.522Z,6.58
2023-02-16T06:23:20.842Z,5.89
2023-02-16T06:25:47.335Z,5.79
2023-02-16T06:28:13.672Z,6.28
2023-02-16T06:30:42.443Z,6.28
2023-02-16T06:33:08.840Z,6.46
2023-02-16T06:35:35.279Z,5.65
2023-02-16T06:38:03.549Z,6.35
2023-02-16T06:40:30.690Z,6.83
2023-02-16T06:42:57.175Z,6.51
2023-02-16T06:45:27.825Z,5.64
2023-02-16T06:47:55.255Z,5.92
2023-02-16T06:50:21.641Z,7.02
2023-02-16T06:52:48.245Z,6.51
2023-02-16T06:55:16.974Z,6.43
2023-02-16T06:57:43.458Z,6.64
2023-02-16T07:00:12.941Z,7.06
2023-02-16T07:02:39.946Z,6.69
2023-02-16T07:05:07.442Z,6.23
2023-02-16T07:07:33.841Z,6.31
2023-02-16T07:10:00.269Z,6.18
2023-02-16T07:12:26.611Z,6.33
2023-02-16T07:14:52.942Z,6.29
2023-02-16T07:17:19.544Z,6.40
2023-02-16T07:19:45.926Z,6.78
2023-02-16T07:22:12.349Z,6.20
2023-02-16T07:24:38.814Z,6.47
2023-02-16T07:27:07.678Z,6.22
2023-02-16T07:29:34.092Z,7.06
2023-02-16T07:32:08.046Z,6.82
2023-02-16T07:34:34.730Z,6.83
2023-02-16T07:37:01.324Z,6.78
2023-02-16T07:39:27.709Z,7.11
2023-02-16T07:41:54.057Z,6.89
2023-02-16T07:44:20.679Z,7.34
2023-02-16T07:46:47.387Z,8.14
2023-02-16T07:49:13.861Z,8.68
2023-02-16T07:51:42.676Z,7.36
2023-02-16T07:54:11.890Z,7.55
2023-02-16T07:56:38.256Z,8.18
2023-02-16T07:59:04.835Z,7.55
2023-02-16T08:01:31.489Z,7.39
2023-02-16T08:03:57.892Z,7.18
2023-02-16T08:06:24.372Z,7.28
2023-02-16T08:08:52.038Z,7.40
2023-02-16T08:11:18.417Z,7.09
2023-02-16T08:13:45.016Z,6.33
2023-02-16T08:16:11.439Z,6.92
2023-02-16T08:18:38.928Z,6.14
2023-02-16T08:21:05.374Z,6.42
2023-02-16T08:23:34.282Z,6.45
2023-02-16T08:26:00.985Z,6.37
2023-02-16T08:28:27.748Z,6.43
2023-02-16T08:30:54.487Z,6.26
2023-02-16T08:33:21.089Z,6.24
2023-02-16T08:35:48.495Z,5.66
2023-02-16T08:38:15.064Z,6.13
2023-02-16T08:40:42.440Z,5.64
2023-02-16T08:43:08.795Z,5.48
2023-02-16T08:45:35.293Z,6.44
2023-02-16T08:48:01.988Z,6.39
2023-02-16T08:50:30.672Z,5.93
2023-02-16T08:52:57.371Z,5.62
2023-02-16T08:55:25.829Z,5.96
2023-02-16T08:57:54.308Z,5.40
2023-02-16T09:00:20.762Z,5.09
2023-02-16T09:02:47.272Z,5.38
2023-02-16T09:05:16.143Z,4.88
2023-02-16T09:07:42.521Z,4.61
2023-02-16T09:10:09.286Z,4.98
2023-02-16T09:12:35.672Z,5.16
2023-02-16T09:15:02.019Z,5.31
2023-02-16T09:17:30.943Z,5.28
2023-02-16T09:19:57.745Z,5.23
2023-02-16T09:22:31.783Z,5.07
2023-02-16T09:24:59.324Z,5.15
2023-02-16T09:27:26.793Z,5.31
2023-02-16T09:29:54.076Z,5.26
2023-02-16T09:32:20.473Z,5.73
2023-02-16T09:34:47.170Z,5.54
2023-02-16T09:37:15.601Z,5.26
2023-02-16T09:39:46.678Z,5.07
2023-02-16T09:42:14.886Z,5.42
2023-02-16T09:44:41.360Z,5.66
2023-02-16T09:47:07.793Z,5.01
2023-02-16T09:49:34.174Z,5.04
2023-02-16T09:52:01.769Z,4.93
2023-02-16T09:54:30.957Z,5.65
2023-02-16T09:56:57.823Z,4.90
2023-02-16T09:59:24.570Z,5.00
2023-02-16T10:01:51.912Z,5.29
2023-02-16T10:04:21.097Z,4.96
2023-02-16T10:06:47.707Z,5.11
2023-02-16T10:09:14.058Z,5.12
2023-02-16T10:11:40.580Z,5.17
2023-02-16T10:14:06.950Z,5.06
2023-02-16T10:16:34.799Z,5.48
2023-02-16T10:19:01.508Z,5.16
2023-02-16T10:21:27.880Z,4.89
2023-02-16T10:23:54.770Z,5.34
2023-02-16T10:26:22.244Z,5.47
2023-02-16T10:28:49.277Z,5.23
2023-02-16T10:31:15.750Z,5.19
2023-02-16T10:33:43.574Z,5.10
2023-02-16T10:36:09.978Z,5.09
2023-02-16T10:38:36.367Z,4.43
2023-02-16T10:41:03.364Z,5.00
2023-02-16T10:43:30.230Z,5.20
2023-02-16T10:45:56.584Z,5.59
2023-02-16T10:48:23.036Z,4.51
2023-02-16T10:50:49.700Z,4.85
2023-02-16T10:53:16.292Z,5.35
2023-02-16T10:55:42.754Z,5.26
2023-02-16T10:58:09.246Z,5.72
2023-02-16T11:00:35.805Z,5.61
2023-02-16T11:03:02.474Z,6.24
2023-02-16T11:05:29.206Z,5.88
2023-02-16T11:07:55.647Z,5.74
2023-02-16T11:10:22.130Z,6.47
2023-02-16T11:12:48.514Z,6.30
2023-02-16T11:15:19.337Z,6.42
2023-02-16T11:17:45.732Z,6.78
2023-02-16T11:20:14.437Z,6.78
2023-02-16T11:22:41.299Z,6.92
2023-02-16T11:25:09.072Z,7.46
2023-02-16T11:27:35.666Z,7.92
2023-02-16T11:30:02.396Z,7.47
2023-02-16T11:32:28.744Z,7.17
2023-02-16T11:34:55.366Z,7.26
2023-02-16T11:37:24.001Z,7.11
2023-02-16T11:39:50.372Z,7.77
2023-02-16T11:42:20.041Z,7.09
2023-02-16T11:44:46.413Z,7.13
2023-02-16T11:47:15.042Z,7.40
2023-02-16T11:49:41.429Z,7.67
2023-02-16T11:52:07.768Z,7.31
2023-02-16T11:54:34.142Z,7.43
2023-02-16T11:57:02.902Z,8.01
2023-02-16T11:59:29.400Z,8.31
2023-02-16T12:01:55.848Z,7.77
2023-02-16T12:04:22.242Z,7.79
2023-02-16T12:06:49.425Z,8.32
2023-02-16T12:09:15.775Z,8.27
2023-02-16T12:11:42.113Z,7.57
2023-02-16T12:14:08.764Z,7.49
2023-02-16T12:16:36.732Z,7.29
2023-02-16T12:19:03.361Z,7.42
2023-02-16T12:21:32.140Z,7.28
2023-02-16T12:23:59.491Z,7.34
2023-02-16T12:26:26.952Z,7.53
2023-02-16T12:28:54.343Z,8.06
2023-02-16T12:31:21.863Z,7.12
2023-02-16T12:33:48.280Z,6.72
2023-02-16T12:36:14.705Z,7.13
2023-02-16T12:38:41.068Z,6.72
2023-02-16T12:41:09.939Z,7.59
2023-02-16T12:43:36.339Z,6.93
2023-02-16T12:46:02.950Z,6.83
2023-02-16T12:48:29.509Z,7.16
2023-02-16T12:50:56.278Z,7.33
2023-02-16T12:53:22.637Z,6.44
2023-02-16T12:55:49.989Z,6.07
2023-02-16T12:58:20.779Z,6.09
2023-02-16T13:00:47.447Z,5.98
2023-02-16T13:03:16.416Z,5.01
2023-02-16T13:05:42.791Z,4.65
2023-02-16T13:08:13.831Z,5.00
2023-02-16T13:10:40.212Z,5.09
2023-02-16T13:13:08.125Z,5.11
2023-02-16T13:15:34.988Z,5.47
2023-02-16T13:18:01.390Z,5.56
2023-02-16T13:20:27.730Z,5.79
2023-02-16T13:22:54.058Z,5.83
2023-02-16T13:25:22.098Z,5.21
2023-02-16T13:27:48.620Z,3.87
2023-02-16T13:30:15.246Z,3.35
2023-02-16T13:32:41.731Z,2.94
2023-02-16T13:35:08.224Z,3.05
2023-02-16T13:37:34.798Z,2.99
2023-02-16T13:40:01.307Z,3.12
2023-02-16T13:42:27.801Z,3.20
2023-02-16T13:44:54.186Z,3.46
2023-02-16T13:47:20.799Z,3.61
2023-02-16T13:49:47.185Z,4.73
2023-02-16T13:52:13.573Z,4.11
2023-02-16T13:54:39.973Z,3.65
2023-02-16T13:57:07.681Z,3.75
2023-02-16T13:59:35.087Z,3.64
2023-02-16T14:02:01.780Z,3.26
2023-02-16T14:04:28.780Z,2.81
2023-02-16T14:06:58.116Z,3.16
2023-02-16T14:09:24.695Z,2.99
2023-02-16T14:11:51.084Z,3.80
2023-02-16T14:14:17.646Z,3.15
2023-02-16T14:16:44.088Z,3.52
2023-02-16T14:19:10.969Z,3.41
2023-02-16T14:21:37.299Z,3.40
2023-02-16T14:24:03.789Z,4.44
2023-02-16T14:26:30.136Z,3.99
2023-02-16T14:28:56.512Z,3.38
2023-02-16T14:31:23.145Z,3.79
2023-02-16T14:33:49.721Z,3.78
2023-02-16T14:36:16.270Z,3.46
2023-02-16T14:38:42.812Z,3.51
2023-02-16T14:41:09.203Z,3.47
2023-02-16T14:43:35.583Z,3.21
2023-02-16T14:46:02.224Z,3.34
2023-02-16T14:48:28.669Z,3.75
2023-02-16T14:50:55.185Z,3.69
2023-02-16T14:53:24.200Z,3.82
2023-02-16T14:55:52.871Z,3.85
2023-02-16T14:58:19.300Z,3.73
2023-02-16T15:00:45.760Z,4.21
2023-02-16T15:03:12.140Z,4.18
2023-02-16T15:05:38.580Z,4.53
2023-02-16T15:08:04.955Z,4.82
2023-02-16T15:10:31.301Z,4.18
2023-02-16T15:12:57.762Z,4.51
2023-02-16T15:15:24.275Z,4.55
2023-02-16T15:17:50.667Z,4.32
2023-02-16T15:20:17.277Z,5.31
2023-02-16T15:22:45.959Z,4.82
2023-02-16T15:25:13.407Z,4.80
2023-02-16T15:27:39.835Z,5.86
2023-02-16T15:30:06.407Z,5.90
2023-02-16T15:32:32.803Z,7.28
2023-02-16T15:34:59.415Z,5.27
2023-02-16T15:37:25.759Z,4.54
2023-02-16T15:40:14.956Z,5.58
2023-02-16T15:42:38.926Z,5.72
2023-02-16T15:45:05.319Z,5.48
2023-02-16T15:47:31.874Z,4.73
2023-02-16T15:49:58.313Z,6.41
2023-02-16T15:52:24.845Z,5.28
2023-02-16T15:54:51.226Z,4.88
2023-02-16T15:57:17.912Z,4.42
2023-02-16T15:59:46.540Z,4.67
2023-02-16T16:02:14.001Z,4.63
2023-02-16T16:04:40.397Z,4.24
2023-02-16T16:07:07.129Z,4.55
2023-02-16T16:09:33.733Z,4.68
2023-02-16T16:12:01.914Z,4.78
2023-02-16T16:14:28.345Z,5.22
2023-02-16T16:16:54.725Z,5.01
2023-02-16T16:19:21.145Z,4.98
2023-02-16T16:21:47.523Z,5.18
2023-02-16T16:24:13.907Z,5.48
2023-02-16T16:26:40.382Z,5.25
2023-02-16T16:29:07.771Z,5.37
2023-02-16T16:31:34.369Z,5.94
2023-02-16T16:34:01.010Z,7.14
2023-02-16T16:36:27.461Z,9.10
2023-02-16T16:38:54.138Z,9.32
2023-02-16T16:41:20.985Z,11.33
2023-02-16T16:43:47.608Z,10.90
2023-02-16T16:46:14.854Z,11.84
2023-02-16T16:48:41.316Z,13.13
2023-02-16T16:51:07.985Z,10.93
2023-02-16T16:53:34.367Z,12.70
2023-02-16T16:56:02.276Z,15.48
2023-02-16T16:58:28.768Z,14.94
2023-02-16T17:00:55.110Z,14.61
2023-02-16T17:03:21.795Z,10.10
2023-02-16T17:05:48.687Z,8.10
2023-02-16T17:08:15.388Z,7.43
2023-02-16T17:10:41.959Z,6.40
2023-02-16T17:13:08.453Z,6.29
2023-02-16T17:15:37.105Z,6.17
2023-02-16T17:18:03.517Z,5.13
2023-02-16T17:20:29.952Z,6.30
2023-02-16T17:22:57.356Z,6.51
2023-02-16T17:25:25.989Z,6.79
2023-02-16T17:27:52.504Z,6.89
2023-02-16T17:30:19.914Z,7.25
2023-02-16T17:32:46.379Z,8.83
2023-02-16T17:35:12.824Z,9.61
2023-02-16T17:37:39.526Z,10.51
2023-02-16T17:40:06.852Z,11.99
2023-02-16T17:42:33.461Z,12.65
2023-02-16T17:44:59.859Z,14.00
2023-02-16T17:47:26.310Z,10.53
2023-02-16T17:49:52.813Z,9.68
2023-02-16T17:52:19.368Z,8.80
2023-02-16T17:54:45.740Z,8.50
2023-02-16T17:57:12.357Z,7.57
2023-02-16T17:59:39.024Z,6.89
2023-02-16T18:02:07.430Z,7.44
2023-02-16T18:04:33.850Z,7.94
2023-02-16T18:07:00.431Z,7.50
2023-02-16T18:09:26.830Z,6.73
2023-02-16T18:11:53.321Z,6.96
2023-02-16T18:14:19.781Z,6.08
2023-02-16T18:16:46.195Z,6.44
2023-02-16T18:19:12.752Z,6.50
2023-02-16T18:21:39.096Z,6.58
2023-02-16T18:24:05.461Z,6.95
2023-02-16T18:26:33.987Z,7.91
2023-02-16T18:29:02.510Z,8.28
2023-02-16T18:31:29.767Z,8.43
2023-02-16T18:34:03.749Z,8.58
2023-02-16T18:36:30.096Z,8.55
2023-02-16T18:38:57.494Z,8.15
2023-02-16T18:41:24.081Z,7.87
2023-02-16T18:43:52.798Z,7.59
2023-02-16T18:46:19.235Z,7.20
2023-02-16T18:48:45.941Z,7.53
2023-02-16T18:51:12.326Z,9.80
2023-02-16T18:53:41.943Z,9.11
2023-02-16T18:56:12.759Z,7.32
2023-02-16T18:58:39.120Z,7.05
2023-02-16T19:01:05.571Z,6.98
2023-02-16T19:03:31.965Z,6.62
2023-02-16T19:05:58.750Z,7.65
2023-02-16T19:08:25.396Z,7.98
2023-02-16T19:10:52.225Z,8.08
2023-02-16T19:13:18.810Z,8.60
2023-02-16T19:15:45.400Z,8.41
2023-02-16T19:18:11.833Z,8.07
2023-02-16T19:20:38.198Z,7.79
2023-02-16T19:23:04.531Z,7.26
2023-02-16T19:25:30.888Z,7.77
2023-02-16T19:27:57.240Z,6.99
2023-02-16T19:30:23.716Z,6.52
2023-02-16T19:32:50.359Z,7.07
2023-02-16T19:35:17.098Z,6.82
2023-02-16T19:37:43.547Z,7.04
2023-02-16T19:40:10.905Z,8.62
2023-02-16T19:42:37.458Z,10.04
2023-02-16T19:45:03.872Z,8.83
2023-02-16T19:47:30.255Z,7.51
2023-02-16T19:49:56.999Z,7.69
2023-02-16T19:52:23.388Z,7.27
2023-02-16T19:54:50.064Z,6.91
2023-02-16T19:57:16.458Z,6.31
2023-02-16T19:59:42.842Z,6.60
2023-02-16T20:02:09.169Z,6.26
2023-02-16T20:04:36.552Z,6.67
2023-02-16T20:07:03.022Z,6.14
2023-02-16T20:09:29.662Z,6.39
2023-02-16T20:11:56.026Z,6.35
2023-02-16T20:14:22.409Z,6.32
2023-02-16T20:16:56.074Z,6.78
2023-02-16T20:19:24.940Z,6.66
2023-02-16T20:21:51.316Z,6.32
2023-02-16T20:24:20.048Z,13.58
2023-02-16T20:26:48.472Z,37.38
2023-02-16T20:29:14.893Z,34.49
2023-02-16T20:31:41.443Z,22.31
2023-02-16T20:34:08.262Z,18.70
2023-02-16T20:36:34.853Z,16.42
2023-02-16T20:39:02.266Z,14.28
2023-02-16T20:41:28.613Z,10.10
2023-02-16T20:43:54.991Z,7.92
2023-02-16T20:46:21.624Z,8.40
2023-02-16T20:48:47.994Z,9.93
2023-02-16T20:51:14.649Z,7.79
2023-02-16T20:53:40.994Z,6.88
2023-02-16T20:56:07.651Z,7.10
2023-02-16T20:58:34.263Z,8.02
2023-02-16T21:01:00.760Z,8.83
2023-02-16T21:03:27.111Z,10.65
2023-02-16T21:05:53.490Z,11.99
2023-02-16T21:08:20.217Z,9.32
2023-02-16T21:10:46.556Z,8.57
2023-02-16T21:13:12.920Z,10.91
2023-02-16T21:15:39.332Z,15.68
2023-02-16T21:18:05.729Z,13.58
2023-02-16T21:20:32.071Z,12.07
2023-02-16T21:22:58.631Z,9.45
2023-02-16T21:25:26.029Z,8.61
2023-02-16T21:27:52.377Z,9.66
2023-02-16T21:30:21.104Z,10.68
2023-02-16T21:32:47.982Z,8.65
2023-02-16T21:35:15.258Z,7.73
2023-02-16T21:37:42.196Z,6.49
2023-02-16T21:40:10.633Z,6.81
2023-02-16T21:42:39.512Z,6.27
2023-02-16T21:45:05.866Z,8.45
2023-02-16T21:47:32.347Z,6.99
2023-02-16T21:49:58.742Z,6.26
2023-02-16T21:52:25.091Z,6.17
2023-02-16T21:54:53.566Z,5.88
2023-02-16T21:57:22.216Z,5.87
2023-02-16T21:59:48.601Z,5.77
2023-02-16T22:02:15.265Z,6.28
2023-02-16T22:04:41.646Z,5.91
2023-02-16T22:07:15.084Z,7.43
2023-02-16T22:09:41.471Z,7.47
2023-02-16T22:12:09.545Z,6.66
2023-02-16T22:14:35.877Z,6.92
2023-02-16T22:17:02.235Z,6.45
2023-02-16T22:19:36.115Z,6.02
2023-02-16T22:22:02.508Z,6.02
2023-02-16T22:24:33.343Z,6.06
2023-02-16T22:26:59.710Z,6.48
2023-02-16T22:29:26.077Z,6.76
2023-02-16T22:31:54.784Z,11.08
2023-02-16T22:34:23.335Z,11.31
2023-02-16T22:36:49.854Z,10.09
2023-02-16T22:39:16.585Z,8.50
2023-02-16T22:41:42.977Z,8.15
2023-02-16T22:44:10.410Z,7.92
2023-02-16T22:46:36.765Z,7.80
2023-02-16T22:49:03.354Z,8.31
2023-02-16T22:51:29.723Z,9.04
2023-02-16T22:53:56.165Z,10.28
2023-02-16T22:56:22.561Z,10.05
2023-02-16T22:58:48.900Z,8.18
2023-02-16T23:01:15.359Z,7.39
2023-02-16T23:03:42.243Z,7.80
2023-02-16T23:06:08.841Z,7.88
2023-02-16T23:08:35.222Z,9.25
2023-02-16T23:11:01.626Z,9.87
2023-02-16T23:13:28.005Z,9.59
2023-02-16T23:15:54.364Z,9.26
2023-02-16T23:18:20.755Z,8.50
2023-02-16T23:20:47.151Z,8.16
2023-02-16T23:23:15.580Z,8.37
2023-02-16T23:25:41.983Z,9.04
2023-02-16T23:28:08.536Z,8.00
2023-02-16T23:30:34.966Z,7.60
2023-02-16T23:33:02.780Z,8.68
2023-02-16T23:35:29.124Z,7.86
2023-02-16T23:37:55.469Z,6.66
2023-02-16T23:40:21.838Z,7.67
2023-02-16T23:42:48.210Z,7.35
2023-02-16T23:45:14.589Z,6.06
2023-02-16T23:47:40.918Z,5.15
2023-02-16T23:50:07.303Z,5.18
2023-02-16T23:52:33.672Z,4.73
2023-02-16T23:55:00.030Z,4.58
2023-02-16T23:57:26.442Z,4.74
2023-02-16T23:59:52.823Z,4.55
